Sheridan County Airport Sheridan US
ICAO: KSHR
IATA: SHR
Category: Medium
Scheduled Services: Yes

Elevation: 4021 ft
TransAlt. 18000 ft.

Airport Communications:
ASOS:135.175
SALT LAKE CITY CNTR:127.75
CASPER RDO:122.5
CTAF/UNICOM:123

KSHR Zoom In..

Runways:

(A) RW 05 length 5039 ft width 75 ft
---- / hdg 55

(B) RW 14 length 8301 ft width 100 ft
---- / hdg 143

(C) RW 23 length 5039 ft width 75 ft
---- / hdg 235

(D) RW 32 length 8301 ft width 100 ft
ILS 108.70 / hdg 323

Location; KSHR
Day. 05 / Time. 14.53 Zulu
* Altimeter: 29.96
* Temperature: 17° c. 62.6°f.
* Wind from: 000° Speed 00 kn.
Dewpoint: 08° c.
Visibility: 10 Statute Miles.
Clouds: Clear (automated report).

KSHR 051453Z AUTO 00000KT 10SM CLR 17/08 A2996 RMK AO2 SLP122 T01670083 50000


Wind - Calm.

 
 
jpsmedia worldairports.se 2020   terms of use